sensor_id;sensor_type;location;lat;lon;timestamp;P1;durP1;ratioP1;P2;durP2;ratioP2
34982;SDS011;21187;50.976;13.720;2023-04-08T00:02:57;19.65;;;8.02;;
34982;SDS011;21187;50.976;13.720;2023-04-08T00:07:59;17.48;;;8.35;;
34982;SDS011;21187;50.976;13.720;2023-04-08T00:13:01;17.50;;;8.68;;
34982;SDS011;21187;50.976;13.720;2023-04-08T00:18:03;19.92;;;8.27;;
34982;SDS011;21187;50.976;13.720;2023-04-08T00:23:05;15.00;;;7.65;;
34982;SDS011;21187;50.976;13.720;2023-04-08T00:28:07;18.23;;;8.65;;
34982;SDS011;21187;50.976;13.720;2023-04-08T00:33:09;18.52;;;8.77;;
34982;SDS011;21187;50.976;13.720;2023-04-08T00:38:12;22.67;;;9.48;;
34982;SDS011;21187;50.976;13.720;2023-04-08T00:43:14;19.15;;;8.85;;
34982;SDS011;21187;50.976;13.720;2023-04-08T00:48:17;17.05;;;7.65;;
34982;SDS011;21187;50.976;13.720;2023-04-08T00:53:19;21.20;;;8.73;;
34982;SDS011;21187;50.976;13.720;2023-04-08T00:58:21;19.40;;;7.45;;
34982;SDS011;21187;50.976;13.720;2023-04-08T01:04:08;17.48;;;8.00;;
34982;SDS011;21187;50.976;13.720;2023-04-08T01:09:01;19.63;;;7.95;;
34982;SDS011;21187;50.976;13.720;2023-04-08T01:14:06;19.38;;;8.40;;
34982;SDS011;21187;50.976;13.720;2023-04-08T01:19:17;20.75;;;8.38;;
34982;SDS011;21187;50.976;13.720;2023-04-08T01:24:30;19.63;;;8.82;;
34982;SDS011;21187;50.976;13.720;2023-04-08T01:29:37;21.73;;;8.85;;
34982;SDS011;21187;50.976;13.720;2023-04-08T01:34:40;20.92;;;8.35;;
34982;SDS011;21187;50.976;13.720;2023-04-08T01:39:43;30.23;;;8.32;;
34982;SDS011;21187;50.976;13.720;2023-04-08T01:44:46;32.55;;;8.20;;
34982;SDS011;21187;50.976;13.720;2023-04-08T01:49:50;21.00;;;8.38;;
34982;SDS011;21187;50.976;13.720;2023-04-08T01:54:53;23.50;;;8.57;;
34982;SDS011;21187;50.976;13.720;2023-04-08T01:59:55;21.52;;;8.90;;
34982;SDS011;21187;50.976;13.720;2023-04-08T02:05:01;20.95;;;7.65;;
34982;SDS011;21187;50.976;13.720;2023-04-08T02:10:03;21.48;;;8.38;;
34982;SDS011;21187;50.976;13.720;2023-04-08T02:15:05;19.77;;;8.18;;
34982;SDS011;21187;50.976;13.720;2023-04-08T02:20:09;21.73;;;7.20;;
34982;SDS011;21187;50.976;13.720;2023-04-08T02:25:18;20.75;;;7.15;;
34982;SDS011;21187;50.976;13.720;2023-04-08T02:30:23;18.77;;;6.70;;
34982;SDS011;21187;50.976;13.720;2023-04-08T02:35:28;18.60;;;6.50;;
34982;SDS011;21187;50.976;13.720;2023-04-08T02:40:30;14.90;;;6.35;;
34982;SDS011;21187;50.976;13.720;2023-04-08T02:45:37;13.65;;;5.60;;
34982;SDS011;21187;50.976;13.720;2023-04-08T02:50:42;15.00;;;5.70;;
34982;SDS011;21187;50.976;13.720;2023-04-08T02:55:44;15.93;;;6.20;;
34982;SDS011;21187;50.976;13.720;2023-04-08T03:00:46;12.70;;;5.45;;
34982;SDS011;21187;50.976;13.720;2023-04-08T03:05:48;17.33;;;5.13;;
34982;SDS011;21187;50.976;13.720;2023-04-08T03:10:50;10.85;;;4.95;;
34982;SDS011;21187;50.976;13.720;2023-04-08T03:15:52;10.25;;;5.18;;
34982;SDS011;21187;50.976;13.720;2023-04-08T03:20:53;11.50;;;4.63;;
34982;SDS011;21187;50.976;13.720;2023-04-08T03:25:55;10.20;;;4.15;;
34982;SDS011;21187;50.976;13.720;2023-04-08T03:30:57;7.88;;;3.97;;
34982;SDS011;21187;50.976;13.720;2023-04-08T03:36:01;8.52;;;3.60;;
34982;SDS011;21187;50.976;13.720;2023-04-08T03:41:03;10.07;;;3.58;;
34982;SDS011;21187;50.976;13.720;2023-04-08T03:46:04;6.97;;;3.63;;
34982;SDS011;21187;50.976;13.720;2023-04-08T03:51:06;7.03;;;3.47;;
34982;SDS011;21187;50.976;13.720;2023-04-08T03:56:08;5.95;;;2.83;;
34982;SDS011;21187;50.976;13.720;2023-04-08T04:01:10;7.68;;;3.42;;
34982;SDS011;21187;50.976;13.720;2023-04-08T04:06:12;7.47;;;3.72;;
34982;SDS011;21187;50.976;13.720;2023-04-08T04:11:14;10.10;;;4.03;;
34982;SDS011;21187;50.976;13.720;2023-04-08T04:16:16;7.22;;;3.33;;
34982;SDS011;21187;50.976;13.720;2023-04-08T04:21:18;5.78;;;2.80;;
34982;SDS011;21187;50.976;13.720;2023-04-08T04:26:20;9.15;;;3.55;;
34982;SDS011;21187;50.976;13.720;2023-04-08T04:31:22;15.98;;;3.13;;
34982;SDS011;21187;50.976;13.720;2023-04-08T04:36:28;19.73;;;3.70;;
34982;SDS011;21187;50.976;13.720;2023-04-08T04:41:30;76.00;;;5.38;;
34982;SDS011;21187;50.976;13.720;2023-04-08T04:46:31;21.42;;;4.05;;
34982;SDS011;21187;50.976;13.720;2023-04-08T04:51:33;44.08;;;4.78;;
34982;SDS011;21187;50.976;13.720;2023-04-08T04:56:35;174.35;;;7.00;;
34982;SDS011;21187;50.976;13.720;2023-04-08T05:01:37;156.15;;;7.30;;
34982;SDS011;21187;50.976;13.720;2023-04-08T05:06:41;155.77;;;7.28;;
34982;SDS011;21187;50.976;13.720;2023-04-08T05:11:43;138.27;;;6.78;;
34982;SDS011;21187;50.976;13.720;2023-04-08T05:16:45;106.03;;;5.88;;
34982;SDS011;21187;50.976;13.720;2023-04-08T05:21:46;150.27;;;6.65;;
34982;SDS011;21187;50.976;13.720;2023-04-08T05:26:48;285.98;;;8.55;;
34982;SDS011;21187;50.976;13.720;2023-04-08T05:31:53;180.05;;;7.32;;
34982;SDS011;21187;50.976;13.720;2023-04-08T05:36:56;200.93;;;8.23;;
34982;SDS011;21187;50.976;13.720;2023-04-08T05:41:58;161.68;;;7.05;;
34982;SDS011;21187;50.976;13.720;2023-04-08T05:47:00;119.78;;;6.45;;
34982;SDS011;21187;50.976;13.720;2023-04-08T05:52:02;224.80;;;9.23;;
34982;SDS011;21187;50.976;13.720;2023-04-08T05:57:04;40.85;;;5.70;;
34982;SDS011;21187;50.976;13.720;2023-04-08T06:02:08;185.90;;;8.88;;
34982;SDS011;21187;50.976;13.720;2023-04-08T06:07:10;171.68;;;8.50;;
34982;SDS011;21187;50.976;13.720;2023-04-08T06:12:12;27.83;;;4.47;;
34982;SDS011;21187;50.976;13.720;2023-04-08T06:17:13;48.88;;;5.65;;
34982;SDS011;21187;50.976;13.720;2023-04-08T06:22:15;62.42;;;6.47;;
34982;SDS011;21187;50.976;13.720;2023-04-08T06:27:17;67.18;;;6.15;;
34982;SDS011;21187;50.976;13.720;2023-04-08T06:32:20;38.13;;;5.10;;
34982;SDS011;21187;50.976;13.720;2023-04-08T06:37:22;259.35;;;10.52;;
34982;SDS011;21187;50.976;13.720;2023-04-08T06:42:24;20.98;;;5.70;;
34982;SDS011;21187;50.976;13.720;2023-04-08T06:47:38;16.52;;;6.70;;
34982;SDS011;21187;50.976;13.720;2023-04-08T06:52:40;286.83;;;13.00;;
34982;SDS011;21187;50.976;13.720;2023-04-08T06:57:42;135.32;;;9.45;;
34982;SDS011;21187;50.976;13.720;2023-04-08T07:02:44;22.83;;;6.55;;
34982;SDS011;21187;50.976;13.720;2023-04-08T07:07:46;53.92;;;9.27;;
34982;SDS011;21187;50.976;13.720;2023-04-08T07:12:48;18.67;;;7.75;;
34982;SDS011;21187;50.976;13.720;2023-04-08T07:17:51;21.55;;;8.02;;
34982;SDS011;21187;50.976;13.720;2023-04-08T07:22:53;18.90;;;8.32;;
34982;SDS011;21187;50.976;13.720;2023-04-08T07:27:55;22.40;;;8.45;;
34982;SDS011;21187;50.976;13.720;2023-04-08T07:32:57;20.70;;;8.15;;
34982;SDS011;21187;50.976;13.720;2023-04-08T07:38:01;24.17;;;8.43;;
34982;SDS011;21187;50.976;13.720;2023-04-08T07:43:03;17.95;;;8.68;;
34982;SDS011;21187;50.976;13.720;2023-04-08T07:48:05;26.30;;;8.80;;
34982;SDS011;21187;50.976;13.720;2023-04-08T07:53:07;20.38;;;9.38;;
34982;SDS011;21187;50.976;13.720;2023-04-08T07:58:10;29.67;;;9.57;;
34982;SDS011;21187;50.976;13.720;2023-04-08T08:03:12;23.75;;;8.80;;
34982;SDS011;21187;50.976;13.720;2023-04-08T08:08:14;23.60;;;9.40;;
34982;SDS011;21187;50.976;13.720;2023-04-08T08:13:16;21.02;;;8.75;;
34982;SDS011;21187;50.976;13.720;2023-04-08T08:18:21;21.95;;;8.90;;
34982;SDS011;21187;50.976;13.720;2023-04-08T08:23:23;21.77;;;8.80;;
34982;SDS011;21187;50.976;13.720;2023-04-08T08:28:25;17.63;;;7.85;;
34982;SDS011;21187;50.976;13.720;2023-04-08T08:33:26;19.20;;;7.95;;
34982;SDS011;21187;50.976;13.720;2023-04-08T08:38:28;19.02;;;7.40;;
34982;SDS011;21187;50.976;13.720;2023-04-08T08:43:30;19.67;;;8.32;;
34982;SDS011;21187;50.976;13.720;2023-04-08T08:48:36;16.85;;;7.35;;
34982;SDS011;21187;50.976;13.720;2023-04-08T08:53:39;13.43;;;6.57;;
34982;SDS011;21187;50.976;13.720;2023-04-08T08:58:45;15.85;;;7.10;;
34982;SDS011;21187;50.976;13.720;2023-04-08T09:03:52;18.60;;;7.53;;
34982;SDS011;21187;50.976;13.720;2023-04-08T09:09:10;20.05;;;9.30;;
34982;SDS011;21187;50.976;13.720;2023-04-08T09:14:16;16.83;;;6.93;;
34982;SDS011;21187;50.976;13.720;2023-04-08T09:19:26;14.88;;;7.32;;
34982;SDS011;21187;50.976;13.720;2023-04-08T09:30:14;17.02;;;7.22;;
34982;SDS011;21187;50.976;13.720;2023-04-08T09:35:17;16.13;;;7.65;;
34982;SDS011;21187;50.976;13.720;2023-04-08T09:40:20;19.83;;;7.60;;
34982;SDS011;21187;50.976;13.720;2023-04-08T09:45:23;14.25;;;7.45;;
34982;SDS011;21187;50.976;13.720;2023-04-08T09:50:30;20.38;;;7.35;;
34982;SDS011;21187;50.976;13.720;2023-04-08T09:55:33;19.25;;;8.10;;
34982;SDS011;21187;50.976;13.720;2023-04-08T10:00:38;18.83;;;8.00;;
34982;SDS011;21187;50.976;13.720;2023-04-08T10:05:51;17.80;;;7.93;;
34982;SDS011;21187;50.976;13.720;2023-04-08T10:10:54;17.40;;;8.30;;
34982;SDS011;21187;50.976;13.720;2023-04-08T10:16:18;24.27;;;9.38;;
34982;SDS011;21187;50.976;13.720;2023-04-08T10:21:32;22.42;;;9.40;;
34982;SDS011;21187;50.976;13.720;2023-04-08T10:31:39;22.02;;;10.00;;
34982;SDS011;21187;50.976;13.720;2023-04-08T10:36:41;19.90;;;8.50;;
34982;SDS011;21187;50.976;13.720;2023-04-08T10:41:43;24.55;;;10.13;;
34982;SDS011;21187;50.976;13.720;2023-04-08T10:46:49;22.33;;;9.10;;
34982;SDS011;21187;50.976;13.720;2023-04-08T10:51:52;21.20;;;8.98;;
34982;SDS011;21187;50.976;13.720;2023-04-08T10:56:54;21.52;;;8.93;;
34982;SDS011;21187;50.976;13.720;2023-04-08T11:01:56;20.85;;;9.40;;
34982;SDS011;21187;50.976;13.720;2023-04-08T11:06:59;20.70;;;8.85;;
34982;SDS011;21187;50.976;13.720;2023-04-08T11:12:01;20.30;;;8.85;;
34982;SDS011;21187;50.976;13.720;2023-04-08T11:17:03;17.63;;;7.38;;
34982;SDS011;21187;50.976;13.720;2023-04-08T11:22:06;19.17;;;8.48;;
34982;SDS011;21187;50.976;13.720;2023-04-08T11:27:10;22.60;;;8.65;;
34982;SDS011;21187;50.976;13.720;2023-04-08T11:32:12;23.77;;;9.95;;
34982;SDS011;21187;50.976;13.720;2023-04-08T11:37:14;23.73;;;11.20;;
34982;SDS011;21187;50.976;13.720;2023-04-08T11:42:29;22.20;;;9.57;;
34982;SDS011;21187;50.976;13.720;2023-04-08T11:47:32;26.88;;;11.10;;
34982;SDS011;21187;50.976;13.720;2023-04-08T11:52:45;26.88;;;10.82;;
34982;SDS011;21187;50.976;13.720;2023-04-08T11:57:48;24.95;;;11.30;;
34982;SDS011;21187;50.976;13.720;2023-04-08T12:02:50;26.65;;;11.23;;
34982;SDS011;21187;50.976;13.720;2023-04-08T12:07:53;26.70;;;11.70;;
34982;SDS011;21187;50.976;13.720;2023-04-08T12:12:55;28.33;;;12.32;;
34982;SDS011;21187;50.976;13.720;2023-04-08T12:17:57;33.88;;;13.45;;
34982;SDS011;21187;50.976;13.720;2023-04-08T12:22:59;23.83;;;11.20;;
34982;SDS011;21187;50.976;13.720;2023-04-08T12:28:01;27.08;;;13.43;;
34982;SDS011;21187;50.976;13.720;2023-04-08T12:33:03;30.80;;;12.50;;
34982;SDS011;21187;50.976;13.720;2023-04-08T12:38:05;34.22;;;13.25;;
34982;SDS011;21187;50.976;13.720;2023-04-08T12:43:07;40.67;;;14.93;;
34982;SDS011;21187;50.976;13.720;2023-04-08T12:48:09;37.65;;;14.02;;
34982;SDS011;21187;50.976;13.720;2023-04-08T12:53:11;38.75;;;15.50;;
34982;SDS011;21187;50.976;13.720;2023-04-08T12:58:13;39.92;;;15.68;;
34982;SDS011;21187;50.976;13.720;2023-04-08T13:03:17;39.30;;;16.40;;
34982;SDS011;21187;50.976;13.720;2023-04-08T13:08:19;38.90;;;15.95;;
34982;SDS011;21187;50.976;13.720;2023-04-08T13:13:21;45.97;;;17.88;;
34982;SDS011;21187;50.976;13.720;2023-04-08T13:18:23;34.30;;;12.77;;
34982;SDS011;21187;50.976;13.720;2023-04-08T13:23:24;34.88;;;12.88;;
34982;SDS011;21187;50.976;13.720;2023-04-08T13:28:26;30.98;;;13.52;;
34982;SDS011;21187;50.976;13.720;2023-04-08T13:33:28;30.92;;;12.93;;
34982;SDS011;21187;50.976;13.720;2023-04-08T13:38:30;32.35;;;11.95;;
34982;SDS011;21187;50.976;13.720;2023-04-08T13:43:32;28.30;;;12.48;;
34982;SDS011;21187;50.976;13.720;2023-04-08T13:48:34;31.23;;;12.60;;
34982;SDS011;21187;50.976;13.720;2023-04-08T13:53:36;26.13;;;11.23;;
34982;SDS011;21187;50.976;13.720;2023-04-08T13:58:38;25.40;;;10.48;;
34982;SDS011;21187;50.976;13.720;2023-04-08T14:03:40;25.95;;;10.90;;
34982;SDS011;21187;50.976;13.720;2023-04-08T14:08:41;30.65;;;10.82;;
34982;SDS011;21187;50.976;13.720;2023-04-08T14:13:43;27.50;;;11.00;;
34982;SDS011;21187;50.976;13.720;2023-04-08T14:18:45;27.25;;;11.82;;
34982;SDS011;21187;50.976;13.720;2023-04-08T14:23:47;23.45;;;10.75;;
34982;SDS011;21187;50.976;13.720;2023-04-08T14:28:49;28.25;;;11.68;;
34982;SDS011;21187;50.976;13.720;2023-04-08T14:33:51;23.00;;;9.52;;
34982;SDS011;21187;50.976;13.720;2023-04-08T14:38:54;21.63;;;9.55;;
34982;SDS011;21187;50.976;13.720;2023-04-08T14:43:56;24.45;;;10.90;;
34982;SDS011;21187;50.976;13.720;2023-04-08T14:48:58;27.48;;;11.65;;
34982;SDS011;21187;50.976;13.720;2023-04-08T14:54:01;27.92;;;12.43;;
34982;SDS011;21187;50.976;13.720;2023-04-08T14:59:03;30.67;;;13.32;;
34982;SDS011;21187;50.976;13.720;2023-04-08T15:04:06;28.98;;;12.82;;
34982;SDS011;21187;50.976;13.720;2023-04-08T15:09:09;27.13;;;10.95;;
34982;SDS011;21187;50.976;13.720;2023-04-08T15:14:11;25.58;;;11.13;;
34982;SDS011;21187;50.976;13.720;2023-04-08T15:19:13;28.60;;;11.93;;
34982;SDS011;21187;50.976;13.720;2023-04-08T15:24:15;28.13;;;11.93;;
34982;SDS011;21187;50.976;13.720;2023-04-08T15:29:18;27.80;;;13.27;;
34982;SDS011;21187;50.976;13.720;2023-04-08T15:34:23;32.80;;;13.00;;
34982;SDS011;21187;50.976;13.720;2023-04-08T15:39:25;26.42;;;11.80;;
34982;SDS011;21187;50.976;13.720;2023-04-08T15:44:31;30.67;;;12.77;;
34982;SDS011;21187;50.976;13.720;2023-04-08T15:49:33;26.70;;;11.23;;
34982;SDS011;21187;50.976;13.720;2023-04-08T15:54:35;28.33;;;12.88;;
34982;SDS011;21187;50.976;13.720;2023-04-08T15:59:38;35.03;;;14.85;;
34982;SDS011;21187;50.976;13.720;2023-04-08T16:04:41;32.50;;;14.77;;
34982;SDS011;21187;50.976;13.720;2023-04-08T16:09:43;34.00;;;16.23;;
34982;SDS011;21187;50.976;13.720;2023-04-08T16:14:45;38.67;;;15.75;;
34982;SDS011;21187;50.976;13.720;2023-04-08T16:19:48;35.97;;;15.45;;
34982;SDS011;21187;50.976;13.720;2023-04-08T16:24:52;36.40;;;15.23;;
34982;SDS011;21187;50.976;13.720;2023-04-08T16:29:54;33.60;;;14.93;;
34982;SDS011;21187;50.976;13.720;2023-04-08T16:34:57;34.42;;;16.48;;
34982;SDS011;21187;50.976;13.720;2023-04-08T16:39:59;41.80;;;15.90;;
34982;SDS011;21187;50.976;13.720;2023-04-08T16:45:02;32.30;;;14.02;;
34982;SDS011;21187;50.976;13.720;2023-04-08T16:50:05;30.38;;;13.55;;
34982;SDS011;21187;50.976;13.720;2023-04-08T16:55:08;34.40;;;14.23;;
34982;SDS011;21187;50.976;13.720;2023-04-08T17:00:12;34.38;;;14.50;;
34982;SDS011;21187;50.976;13.720;2023-04-08T17:05:14;30.60;;;13.43;;
34982;SDS011;21187;50.976;13.720;2023-04-08T17:10:17;27.88;;;13.25;;
34982;SDS011;21187;50.976;13.720;2023-04-08T17:15:19;33.75;;;13.77;;
34982;SDS011;21187;50.976;13.720;2023-04-08T17:20:22;31.15;;;13.57;;
34982;SDS011;21187;50.976;13.720;2023-04-08T17:25:26;33.67;;;14.00;;
34982;SDS011;21187;50.976;13.720;2023-04-08T17:30:29;31.95;;;14.32;;
34982;SDS011;21187;50.976;13.720;2023-04-08T17:35:30;33.22;;;13.57;;
34982;SDS011;21187;50.976;13.720;2023-04-08T17:40:33;32.80;;;13.93;;
34982;SDS011;21187;50.976;13.720;2023-04-08T17:45:34;36.67;;;14.90;;
34982;SDS011;21187;50.976;13.720;2023-04-08T17:50:37;31.40;;;14.18;;
34982;SDS011;21187;50.976;13.720;2023-04-08T17:55:39;34.80;;;15.20;;
34982;SDS011;21187;50.976;13.720;2023-04-08T18:00:41;29.13;;;13.88;;
34982;SDS011;21187;50.976;13.720;2023-04-08T18:05:43;36.80;;;14.68;;
34982;SDS011;21187;50.976;13.720;2023-04-08T18:10:45;36.42;;;14.73;;
34982;SDS011;21187;50.976;13.720;2023-04-08T18:15:47;35.30;;;15.25;;
34982;SDS011;21187;50.976;13.720;2023-04-08T18:20:49;33.00;;;14.50;;
34982;SDS011;21187;50.976;13.720;2023-04-08T18:25:52;32.80;;;14.75;;
34982;SDS011;21187;50.976;13.720;2023-04-08T18:30:54;30.92;;;14.30;;
34982;SDS011;21187;50.976;13.720;2023-04-08T18:36:04;36.63;;;14.63;;
34982;SDS011;21187;50.976;13.720;2023-04-08T18:41:09;37.90;;;15.82;;
34982;SDS011;21187;50.976;13.720;2023-04-08T18:46:12;33.47;;;14.75;;
34982;SDS011;21187;50.976;13.720;2023-04-08T18:51:14;39.33;;;15.88;;
34982;SDS011;21187;50.976;13.720;2023-04-08T18:56:19;39.40;;;16.40;;
34982;SDS011;21187;50.976;13.720;2023-04-08T19:01:24;37.17;;;15.55;;
34982;SDS011;21187;50.976;13.720;2023-04-08T19:06:26;35.63;;;16.48;;
34982;SDS011;21187;50.976;13.720;2023-04-08T19:11:29;39.70;;;16.95;;
34982;SDS011;21187;50.976;13.720;2023-04-08T19:16:31;35.17;;;15.30;;
34982;SDS011;21187;50.976;13.720;2023-04-08T19:21:34;40.97;;;16.63;;
34982;SDS011;21187;50.976;13.720;2023-04-08T19:26:38;39.78;;;17.13;;
34982;SDS011;21187;50.976;13.720;2023-04-08T19:31:40;33.75;;;15.65;;
34982;SDS011;21187;50.976;13.720;2023-04-08T19:36:43;40.10;;;16.98;;
34982;SDS011;21187;50.976;13.720;2023-04-08T19:41:45;37.42;;;15.60;;
34982;SDS011;21187;50.976;13.720;2023-04-08T19:46:48;33.75;;;16.20;;
34982;SDS011;21187;50.976;13.720;2023-04-08T19:51:50;34.92;;;15.57;;
34982;SDS011;21187;50.976;13.720;2023-04-08T19:56:52;36.17;;;15.10;;
34982;SDS011;21187;50.976;13.720;2023-04-08T20:01:54;39.30;;;17.60;;
34982;SDS011;21187;50.976;13.720;2023-04-08T20:06:56;64.10;;;23.42;;
34982;SDS011;21187;50.976;13.720;2023-04-08T20:11:58;46.25;;;18.83;;
34982;SDS011;21187;50.976;13.720;2023-04-08T20:17:06;43.72;;;19.65;;
34982;SDS011;21187;50.976;13.720;2023-04-08T20:22:08;44.50;;;19.35;;
34982;SDS011;21187;50.976;13.720;2023-04-08T20:27:10;42.22;;;17.77;;
34982;SDS011;21187;50.976;13.720;2023-04-08T20:32:12;39.97;;;17.83;;
34982;SDS011;21187;50.976;13.720;2023-04-08T20:37:15;38.65;;;17.63;;
34982;SDS011;21187;50.976;13.720;2023-04-08T20:42:18;41.20;;;16.23;;
34982;SDS011;21187;50.976;13.720;2023-04-08T20:47:21;36.30;;;16.88;;
34982;SDS011;21187;50.976;13.720;2023-04-08T20:52:23;38.85;;;17.25;;
34982;SDS011;21187;50.976;13.720;2023-04-08T20:57:25;42.53;;;17.48;;
34982;SDS011;21187;50.976;13.720;2023-04-08T21:02:27;38.63;;;16.83;;
34982;SDS011;21187;50.976;13.720;2023-04-08T21:07:29;44.10;;;17.52;;
34982;SDS011;21187;50.976;13.720;2023-04-08T21:12:31;34.85;;;16.95;;
34982;SDS011;21187;50.976;13.720;2023-04-08T21:17:33;37.45;;;16.73;;
34982;SDS011;21187;50.976;13.720;2023-04-08T21:22:35;43.83;;;18.58;;
34982;SDS011;21187;50.976;13.720;2023-04-08T21:27:37;38.65;;;16.90;;
34982;SDS011;21187;50.976;13.720;2023-04-08T21:32:41;36.95;;;17.35;;
34982;SDS011;21187;50.976;13.720;2023-04-08T21:37:43;37.03;;;16.48;;
34982;SDS011;21187;50.976;13.720;2023-04-08T21:42:45;38.60;;;17.23;;
34982;SDS011;21187;50.976;13.720;2023-04-08T21:47:47;41.25;;;16.23;;
34982;SDS011;21187;50.976;13.720;2023-04-08T21:52:51;38.13;;;15.85;;
34982;SDS011;21187;50.976;13.720;2023-04-08T21:57:52;39.80;;;16.92;;
34982;SDS011;21187;50.976;13.720;2023-04-08T22:02:54;38.83;;;16.98;;
34982;SDS011;21187;50.976;13.720;2023-04-08T22:07:57;42.70;;;17.33;;
34982;SDS011;21187;50.976;13.720;2023-04-08T22:12:58;42.83;;;17.77;;
34982;SDS011;21187;50.976;13.720;2023-04-08T22:18:00;42.03;;;17.52;;
34982;SDS011;21187;50.976;13.720;2023-04-08T22:23:02;43.33;;;18.13;;
34982;SDS011;21187;50.976;13.720;2023-04-08T22:28:04;38.63;;;16.98;;
34982;SDS011;21187;50.976;13.720;2023-04-08T22:33:06;37.22;;;16.55;;
34982;SDS011;21187;50.976;13.720;2023-04-08T22:38:08;42.20;;;16.85;;
34982;SDS011;21187;50.976;13.720;2023-04-08T22:43:10;41.78;;;17.55;;
34982;SDS011;21187;50.976;13.720;2023-04-08T22:48:12;41.53;;;17.63;;
34982;SDS011;21187;50.976;13.720;2023-04-08T22:53:14;44.35;;;18.25;;
34982;SDS011;21187;50.976;13.720;2023-04-08T22:58:16;45.28;;;20.13;;
34982;SDS011;21187;50.976;13.720;2023-04-08T23:03:18;42.70;;;17.63;;
34982;SDS011;21187;50.976;13.720;2023-04-08T23:08:20;47.00;;;19.30;;
34982;SDS011;21187;50.976;13.720;2023-04-08T23:13:22;46.85;;;19.27;;
34982;SDS011;21187;50.976;13.720;2023-04-08T23:18:24;44.17;;;18.52;;
34982;SDS011;21187;50.976;13.720;2023-04-08T23:23:26;44.28;;;18.05;;
34982;SDS011;21187;50.976;13.720;2023-04-08T23:28:28;42.95;;;17.52;;
34982;SDS011;21187;50.976;13.720;2023-04-08T23:33:30;46.33;;;17.30;;
34982;SDS011;21187;50.976;13.720;2023-04-08T23:38:31;39.45;;;16.05;;
34982;SDS011;21187;50.976;13.720;2023-04-08T23:43:33;40.90;;;16.05;;
34982;SDS011;21187;50.976;13.720;2023-04-08T23:48:36;37.38;;;16.40;;
34982;SDS011;21187;50.976;13.720;2023-04-08T23:53:38;36.67;;;15.63;;
34982;SDS011;21187;50.976;13.720;2023-04-08T23:58:40;41.95;;;16.67;;
